Teaberry, Kentucky
Current Conditions -  °F | °C
As of 7:55 PM on Monday 26 Jan 2015 (Local Time) from KPBX Reporting Station
Overcast Overcast  
Wind Chill: 20°   Ceiling: 700
Heat Index: 25°   Visibility: 10mi
Dew Point: 24°   Wind: 5mph
Humidity: 93%   Direction: 260°W
Pressure: 29.9"   Gusts: NA
Location:  37.43°N, 82.64°W
Report Text: KPBX 270055Z AUTO 26004KT 10SM OVC007 M04/M05 A2990 RMK AO2 T10371047
Loading
Personal Weather Stations






























Interactive Weather Map New forecast layout! Learn more

10-Day Weather Forecast

Advertisements
Track Severe Weather on mobile